sensor_id;sensor_type;location;lat;lon;timestamp;pressure;altitude;pressure_sealevel;temperature;humidity
46394;BME280;32099;53.588;10.176;2023-12-20T00:00:42;100591.13;;;6.25;100.00
46394;BME280;32099;53.588;10.176;2023-12-20T00:03:08;100593.63;;;6.18;100.00
46394;BME280;32099;53.588;10.176;2023-12-20T00:05:33;100593.09;;;6.14;100.00
46394;BME280;32099;53.588;10.176;2023-12-20T00:08:02;100607.63;;;6.13;100.00
46394;BME280;32099;53.588;10.176;2023-12-20T00:10:28;100597.81;;;6.12;100.00
46394;BME280;32099;53.588;10.176;2023-12-20T00:12:54;100601.53;;;6.11;100.00
46394;BME280;32099;53.588;10.176;2023-12-20T00:15:20;100597.28;;;6.09;100.00
46394;BME280;32099;53.588;10.176;2023-12-20T00:17:45;100593.00;;;6.06;100.00
46394;BME280;32099;53.588;10.176;2023-12-20T00:20:11;100592.31;;;6.04;100.00
46394;BME280;32099;53.588;10.176;2023-12-20T00:22:37;100592.66;;;6.01;100.00
46394;BME280;32099;53.588;10.176;2023-12-20T00:25:07;100587.69;;;5.96;100.00
46394;BME280;32099;53.588;10.176;2023-12-20T00:27:32;100585.59;;;5.90;100.00
46394;BME280;32099;53.588;10.176;2023-12-20T00:29:58;100594.00;;;5.87;100.00
46394;BME280;32099;53.588;10.176;2023-12-20T00:32:24;100592.47;;;5.84;100.00
46394;BME280;32099;53.588;10.176;2023-12-20T00:34:50;100586.34;;;5.82;100.00
46394;BME280;32099;53.588;10.176;2023-12-20T00:37:16;100583.66;;;5.82;100.00
46394;BME280;32099;53.588;10.176;2023-12-20T00:39:42;100574.69;;;5.82;100.00
46394;BME280;32099;53.588;10.176;2023-12-20T00:42:10;100583.66;;;5.82;100.00
46394;BME280;32099;53.588;10.176;2023-12-20T00:44:36;100572.69;;;5.84;100.00
46394;BME280;32099;53.588;10.176;2023-12-20T00:47:03;100577.94;;;5.85;100.00
46394;BME280;32099;53.588;10.176;2023-12-20T00:49:29;100567.28;;;5.84;100.00
46394;BME280;32099;53.588;10.176;2023-12-20T00:51:55;100562.69;;;5.84;100.00
46394;BME280;32099;53.588;10.176;2023-12-20T00:54:21;100566.41;;;5.83;100.00
46394;BME280;32099;53.588;10.176;2023-12-20T00:56:47;100563.56;;;5.85;100.00
46394;BME280;32099;53.588;10.176;2023-12-20T00:59:16;100559.69;;;5.87;100.00
46394;BME280;32099;53.588;10.176;2023-12-20T01:01:42;100548.69;;;5.89;100.00
46394;BME280;32099;53.588;10.176;2023-12-20T01:04:08;100566.63;;;5.90;100.00
46394;BME280;32099;53.588;10.176;2023-12-20T01:06:33;100560.06;;;5.93;100.00
46394;BME280;32099;53.588;10.176;2023-12-20T01:08:59;100554.50;;;5.94;100.00
46394;BME280;32099;53.588;10.176;2023-12-20T01:11:25;100552.63;;;5.95;100.00
46394;BME280;32099;53.588;10.176;2023-12-20T01:13:50;100560.63;;;5.96;100.00
46394;BME280;32099;53.588;10.176;2023-12-20T01:16:19;100557.75;;;5.98;100.00
46394;BME280;32099;53.588;10.176;2023-12-20T01:18:44;100545.38;;;5.95;100.00
46394;BME280;32099;53.588;10.176;2023-12-20T01:21:10;100549.09;;;5.94;100.00
46394;BME280;32099;53.588;10.176;2023-12-20T01:23:36;100547.91;;;5.97;100.00
46394;BME280;32099;53.588;10.176;2023-12-20T01:26:02;100545.22;;;5.97;100.00
46394;BME280;32099;53.588;10.176;2023-12-20T01:28:28;100535.25;;;5.97;100.00
46394;BME280;32099;53.588;10.176;2023-12-20T01:30:53;100543.38;;;5.97;100.00
46394;BME280;32099;53.588;10.176;2023-12-20T01:33:22;100543.69;;;5.94;100.00
46394;BME280;32099;53.588;10.176;2023-12-20T01:35:47;100545.00;;;5.90;100.00
46394;BME280;32099;53.588;10.176;2023-12-20T01:38:13;100537.19;;;5.87;100.00
46394;BME280;32099;53.588;10.176;2023-12-20T01:40:39;100546.34;;;5.86;100.00
46394;BME280;32099;53.588;10.176;2023-12-20T01:43:07;100536.66;;;5.83;100.00
46394;BME280;32099;53.588;10.176;2023-12-20T01:45:34;100537.81;;;5.81;100.00
46394;BME280;32099;53.588;10.176;2023-12-20T01:48:00;100533.56;;;5.78;100.00
46394;BME280;32099;53.588;10.176;2023-12-20T01:50:29;100526.78;;;5.74;100.00
46394;BME280;32099;53.588;10.176;2023-12-20T01:52:56;100520.81;;;5.70;100.00
46394;BME280;32099;53.588;10.176;2023-12-20T01:55:26;100523.69;;;5.69;100.00
46394;BME280;32099;53.588;10.176;2023-12-20T01:57:54;100533.81;;;5.67;100.00
46394;BME280;32099;53.588;10.176;2023-12-20T02:00:22;100528.41;;;5.67;100.00
46394;BME280;32099;53.588;10.176;2023-12-20T02:02:49;100526.53;;;5.67;100.00
46394;BME280;32099;53.588;10.176;2023-12-20T02:05:18;100525.22;;;5.71;100.00
46394;BME280;32099;53.588;10.176;2023-12-20T02:07:47;100519.66;;;5.73;100.00
46394;BME280;32099;53.588;10.176;2023-12-20T02:10:13;100517.66;;;5.75;100.00
46394;BME280;32099;53.588;10.176;2023-12-20T02:12:39;100515.25;;;5.72;100.00
46394;BME280;32099;53.588;10.176;2023-12-20T02:15:05;100499.00;;;5.72;100.00
46394;BME280;32099;53.588;10.176;2023-12-20T02:17:32;100495.31;;;5.73;100.00
46394;BME280;32099;53.588;10.176;2023-12-20T02:19:59;100497.88;;;5.75;100.00
46394;BME280;32099;53.588;10.176;2023-12-20T02:22:27;100502.13;;;5.77;100.00
46394;BME280;32099;53.588;10.176;2023-12-20T02:24:53;100490.75;;;5.74;100.00
46394;BME280;32099;53.588;10.176;2023-12-20T02:27:19;100490.06;;;5.71;100.00
46394;BME280;32099;53.588;10.176;2023-12-20T02:29:45;100484.97;;;5.68;100.00
46394;BME280;32099;53.588;10.176;2023-12-20T02:32:12;100477.16;;;5.65;100.00
46394;BME280;32099;53.588;10.176;2023-12-20T02:34:38;100493.38;;;5.65;100.00
46394;BME280;32099;53.588;10.176;2023-12-20T02:37:04;100480.84;;;5.64;100.00
46394;BME280;32099;53.588;10.176;2023-12-20T02:39:32;100474.63;;;5.64;100.00
46394;BME280;32099;53.588;10.176;2023-12-20T02:41:58;100485.59;;;5.62;100.00
46394;BME280;32099;53.588;10.176;2023-12-20T02:44:23;100484.72;;;5.62;100.00
46394;BME280;32099;53.588;10.176;2023-12-20T02:46:49;100487.13;;;5.65;100.00
46394;BME280;32099;53.588;10.176;2023-12-20T02:49:15;100471.75;;;5.65;100.00
46394;BME280;32099;53.588;10.176;2023-12-20T02:51:41;100477.00;;;5.67;100.00
46394;BME280;32099;53.588;10.176;2023-12-20T02:54:06;100474.84;;;5.70;100.00
46394;BME280;32099;53.588;10.176;2023-12-20T02:56:35;100470.25;;;5.71;100.00
46394;BME280;32099;53.588;10.176;2023-12-20T02:59:00;100467.41;;;5.72;100.00
46394;BME280;32099;53.588;10.176;2023-12-20T03:01:26;100467.25;;;5.74;100.00
46394;BME280;32099;53.588;10.176;2023-12-20T03:03:53;100469.94;;;5.74;100.00
46394;BME280;32099;53.588;10.176;2023-12-20T03:06:18;100470.13;;;5.72;100.00
46394;BME280;32099;53.588;10.176;2023-12-20T03:08:44;100453.72;;;5.74;100.00
46394;BME280;32099;53.588;10.176;2023-12-20T03:11:10;100449.69;;;5.78;100.00
46394;BME280;32099;53.588;10.176;2023-12-20T03:13:39;100449.00;;;5.76;100.00
46394;BME280;32099;53.588;10.176;2023-12-20T03:16:07;100447.00;;;5.78;100.00
46394;BME280;32099;53.588;10.176;2023-12-20T03:18:34;100443.41;;;5.78;100.00
46394;BME280;32099;53.588;10.176;2023-12-20T03:20:59;100445.13;;;5.79;100.00
46394;BME280;32099;53.588;10.176;2023-12-20T03:23:25;100435.16;;;5.79;100.00
46394;BME280;32099;53.588;10.176;2023-12-20T03:25:51;100428.06;;;5.78;100.00
46394;BME280;32099;53.588;10.176;2023-12-20T03:28:16;100422.63;;;5.78;100.00
46394;BME280;32099;53.588;10.176;2023-12-20T03:30:45;100426.19;;;5.79;100.00
46394;BME280;32099;53.588;10.176;2023-12-20T03:33:11;100422.78;;;5.77;100.00
46394;BME280;32099;53.588;10.176;2023-12-20T03:35:37;100420.94;;;5.77;100.00
46394;BME280;32099;53.588;10.176;2023-12-20T03:38:03;100421.78;;;5.78;100.00
46394;BME280;32099;53.588;10.176;2023-12-20T03:40:28;100423.78;;;5.76;100.00
46394;BME280;32099;53.588;10.176;2023-12-20T03:42:54;100434.94;;;5.72;100.00
46394;BME280;32099;53.588;10.176;2023-12-20T03:45:20;100424.13;;;5.72;100.00
46394;BME280;32099;53.588;10.176;2023-12-20T03:47:48;100422.44;;;5.71;100.00
46394;BME280;32099;53.588;10.176;2023-12-20T03:50:14;100417.16;;;5.70;100.00
46394;BME280;32099;53.588;10.176;2023-12-20T03:52:40;100416.16;;;5.71;100.00
46394;BME280;32099;53.588;10.176;2023-12-20T03:55:06;100410.06;;;5.69;100.00
46394;BME280;32099;53.588;10.176;2023-12-20T03:57:32;100399.09;;;5.70;100.00
46394;BME280;32099;53.588;10.176;2023-12-20T03:59:57;100401.78;;;5.70;100.00
46394;BME280;32099;53.588;10.176;2023-12-20T04:02:23;100394.84;;;5.68;100.00
46394;BME280;32099;53.588;10.176;2023-12-20T04:04:51;100391.97;;;5.69;100.00
46394;BME280;32099;53.588;10.176;2023-12-20T04:07:17;100384.69;;;5.70;100.00
46394;BME280;32099;53.588;10.176;2023-12-20T04:09:43;100383.16;;;5.67;100.00
46394;BME280;32099;53.588;10.176;2023-12-20T04:12:08;100383.84;;;5.69;100.00
46394;BME280;32099;53.588;10.176;2023-12-20T04:14:34;100391.13;;;5.69;100.00
46394;BME280;32099;53.588;10.176;2023-12-20T04:17:00;100393.97;;;5.67;100.00
46394;BME280;32099;53.588;10.176;2023-12-20T04:19:25;100386.34;;;5.63;100.00
46394;BME280;32099;53.588;10.176;2023-12-20T04:21:54;100386.50;;;5.61;100.00
46394;BME280;32099;53.588;10.176;2023-12-20T04:24:20;100389.22;;;5.61;100.00
46394;BME280;32099;53.588;10.176;2023-12-20T04:26:46;100375.34;;;5.64;100.00
46394;BME280;32099;53.588;10.176;2023-12-20T04:29:12;100372.50;;;5.66;100.00
46394;BME280;32099;53.588;10.176;2023-12-20T04:31:37;100368.78;;;5.67;100.00
46394;BME280;32099;53.588;10.176;2023-12-20T04:34:03;100362.00;;;5.63;100.00
46394;BME280;32099;53.588;10.176;2023-12-20T04:36:29;100352.88;;;5.64;100.00
46394;BME280;32099;53.588;10.176;2023-12-20T04:38:58;100352.03;;;5.63;100.00
46394;BME280;32099;53.588;10.176;2023-12-20T04:41:23;100352.56;;;5.67;100.00
46394;BME280;32099;53.588;10.176;2023-12-20T04:43:49;100340.03;;;5.66;100.00
46394;BME280;32099;53.588;10.176;2023-12-20T04:46:15;100344.59;;;5.65;100.00
46394;BME280;32099;53.588;10.176;2023-12-20T04:48:41;100333.78;;;5.65;100.00
46394;BME280;32099;53.588;10.176;2023-12-20T04:51:06;100332.06;;;5.64;100.00
46394;BME280;32099;53.588;10.176;2023-12-20T04:53:32;100319.41;;;5.65;100.00
46394;BME280;32099;53.588;10.176;2023-12-20T04:56:01;100330.94;;;5.67;100.00
46394;BME280;32099;53.588;10.176;2023-12-20T04:58:26;100330.06;;;5.66;100.00
46394;BME280;32099;53.588;10.176;2023-12-20T05:00:52;100325.66;;;5.65;100.00
46394;BME280;32099;53.588;10.176;2023-12-20T05:03:18;100328.22;;;5.67;100.00
46394;BME280;32099;53.588;10.176;2023-12-20T05:05:43;100338.03;;;5.68;100.00
46394;BME280;32099;53.588;10.176;2023-12-20T05:08:09;100336.00;;;5.70;100.00
46394;BME280;32099;53.588;10.176;2023-12-20T05:10:35;100329.56;;;5.71;100.00
46394;BME280;32099;53.588;10.176;2023-12-20T05:13:03;100326.22;;;5.69;100.00
46394;BME280;32099;53.588;10.176;2023-12-20T05:15:29;100328.75;;;5.70;100.00
46394;BME280;32099;53.588;10.176;2023-12-20T05:17:54;100321.47;;;5.71;100.00
46394;BME280;32099;53.588;10.176;2023-12-20T05:20:20;100325.72;;;5.74;100.00
46394;BME280;32099;53.588;10.176;2023-12-20T05:22:46;100312.19;;;5.74;100.00
46394;BME280;32099;53.588;10.176;2023-12-20T05:25:12;100319.31;;;5.75;100.00
46394;BME280;32099;53.588;10.176;2023-12-20T05:27:38;100313.53;;;5.78;100.00
46394;BME280;32099;53.588;10.176;2023-12-20T05:30:07;100303.59;;;5.78;100.00
46394;BME280;32099;53.588;10.176;2023-12-20T05:32:33;100310.84;;;5.78;100.00
46394;BME280;32099;53.588;10.176;2023-12-20T05:34:59;100299.00;;;5.79;100.00
46394;BME280;32099;53.588;10.176;2023-12-20T05:37:25;100313.41;;;5.79;100.00
46394;BME280;32099;53.588;10.176;2023-12-20T05:39:51;100313.91;;;5.83;100.00
46394;BME280;32099;53.588;10.176;2023-12-20T05:42:17;100323.88;;;5.82;100.00
46394;BME280;32099;53.588;10.176;2023-12-20T05:44:42;100327.44;;;5.83;100.00
46394;BME280;32099;53.588;10.176;2023-12-20T05:47:11;100312.22;;;5.82;100.00
46394;BME280;32099;53.588;10.176;2023-12-20T05:49:37;100291.41;;;5.82;100.00
46394;BME280;32099;53.588;10.176;2023-12-20T05:52:03;100308.34;;;5.84;100.00
46394;BME280;32099;53.588;10.176;2023-12-20T05:54:29;100320.84;;;5.85;100.00
46394;BME280;32099;53.588;10.176;2023-12-20T05:56:55;100320.03;;;5.85;100.00
46394;BME280;32099;53.588;10.176;2023-12-20T05:59:21;100307.50;;;5.84;100.00
46394;BME280;32099;53.588;10.176;2023-12-20T06:01:46;100310.22;;;5.84;100.00
46394;BME280;32099;53.588;10.176;2023-12-20T06:04:15;100299.22;;;5.85;100.00
46394;BME280;32099;53.588;10.176;2023-12-20T06:06:41;100293.78;;;5.85;100.00
46394;BME280;32099;53.588;10.176;2023-12-20T06:09:07;100295.50;;;5.86;100.00
46394;BME280;32099;53.588;10.176;2023-12-20T06:11:33;100298.19;;;5.86;100.00
46394;BME280;32099;53.588;10.176;2023-12-20T06:13:59;100314.59;;;5.85;100.00
46394;BME280;32099;53.588;10.176;2023-12-20T06:16:25;100288.38;;;5.85;100.00
46394;BME280;32099;53.588;10.176;2023-12-20T06:18:51;100283.28;;;5.82;100.00
46394;BME280;32099;53.588;10.176;2023-12-20T06:21:19;100270.63;;;5.83;100.00
46394;BME280;32099;53.588;10.176;2023-12-20T06:23:45;100274.16;;;5.83;100.00
46394;BME280;32099;53.588;10.176;2023-12-20T06:26:11;100264.19;;;5.84;100.00
46394;BME280;32099;53.588;10.176;2023-12-20T06:28:37;100262.19;;;5.86;100.00
46394;BME280;32099;53.588;10.176;2023-12-20T06:31:03;100262.19;;;5.86;100.00
46394;BME280;32099;53.588;10.176;2023-12-20T06:33:29;100258.63;;;5.85;100.00
46394;BME280;32099;53.588;10.176;2023-12-20T06:35:54;100262.00;;;5.87;100.00
46394;BME280;32099;53.588;10.176;2023-12-20T06:38:23;100262.53;;;5.91;100.00
46394;BME280;32099;53.588;10.176;2023-12-20T06:40:49;100265.06;;;5.93;100.00
46394;BME280;32099;53.588;10.176;2023-12-20T06:43:14;100258.50;;;5.95;100.00
46394;BME280;32099;53.588;10.176;2023-12-20T06:45:40;100254.91;;;5.95;100.00
46394;BME280;32099;53.588;10.176;2023-12-20T06:48:06;100256.63;;;5.96;100.00
46394;BME280;32099;53.588;10.176;2023-12-20T06:50:32;100248.50;;;5.96;100.00
46394;BME280;32099;53.588;10.176;2023-12-20T06:52:58;100248.34;;;5.97;100.00
46394;BME280;32099;53.588;10.176;2023-12-20T06:55:26;100248.16;;;5.99;100.00
46394;BME280;32099;53.588;10.176;2023-12-20T06:57:52;100252.91;;;5.97;100.00
46394;BME280;32099;53.588;10.176;2023-12-20T07:00:18;100252.38;;;5.93;100.00
46394;BME280;32099;53.588;10.176;2023-12-20T07:02:43;100246.09;;;5.93;100.00
46394;BME280;32099;53.588;10.176;2023-12-20T07:05:09;100236.31;;;5.92;100.00
46394;BME280;32099;53.588;10.176;2023-12-20T07:07:35;100229.03;;;5.92;100.00
46394;BME280;32099;53.588;10.176;2023-12-20T07:10:00;100228.88;;;5.94;100.00
46394;BME280;32099;53.588;10.176;2023-12-20T07:12:29;100219.91;;;5.93;100.00
46394;BME280;32099;53.588;10.176;2023-12-20T07:14:55;100220.09;;;5.92;100.00
46394;BME280;32099;53.588;10.176;2023-12-20T07:17:20;100239.53;;;5.95;100.00
46394;BME280;32099;53.588;10.176;2023-12-20T07:19:46;100225.66;;;5.98;100.00
46394;BME280;32099;53.588;10.176;2023-12-20T07:22:12;100247.31;;;5.98;100.00
46394;BME280;32099;53.588;10.176;2023-12-20T07:24:38;100239.38;;;5.97;100.00
46394;BME280;32099;53.588;10.176;2023-12-20T07:27:03;100247.31;;;5.98;100.00
46394;BME280;32099;53.588;10.176;2023-12-20T07:29:32;100240.22;;;5.97;100.00
46394;BME280;32099;53.588;10.176;2023-12-20T07:31:58;100226.69;;;5.97;100.00
46394;BME280;32099;53.588;10.176;2023-12-20T07:34:23;100225.84;;;5.97;100.00
46394;BME280;32099;53.588;10.176;2023-12-20T07:36:49;100225.84;;;5.97;100.00
46394;BME280;32099;53.588;10.176;2023-12-20T07:39:15;100226.69;;;5.97;100.00
46394;BME280;32099;53.588;10.176;2023-12-20T07:41:40;100215.00;;;5.97;100.00
46394;BME280;32099;53.588;10.176;2023-12-20T07:44:06;100218.56;;;5.97;100.00
46394;BME280;32099;53.588;10.176;2023-12-20T07:46:37;100225.84;;;5.97;100.00
46394;BME280;32099;53.588;10.176;2023-12-20T07:49:03;100215.69;;;5.99;100.00
46394;BME280;32099;53.588;10.176;2023-12-20T07:51:30;100207.28;;;6.02;100.00
46394;BME280;32099;53.588;10.176;2023-12-20T07:53:55;100214.41;;;6.03;100.00
46394;BME280;32099;53.588;10.176;2023-12-20T07:56:21;100187.97;;;6.05;100.00
46394;BME280;32099;53.588;10.176;2023-12-20T07:58:47;100196.97;;;6.06;100.00
46394;BME280;32099;53.588;10.176;2023-12-20T08:01:12;100192.06;;;6.09;100.00
46394;BME280;32099;53.588;10.176;2023-12-20T08:03:41;100200.19;;;6.09;100.00
46394;BME280;32099;53.588;10.176;2023-12-20T08:06:07;100210.81;;;6.11;100.00
46394;BME280;32099;53.588;10.176;2023-12-20T08:08:32;100200.00;;;6.11;100.00
46394;BME280;32099;53.588;10.176;2023-12-20T08:10:58;100196.28;;;6.12;100.00
46394;BME280;32099;53.588;10.176;2023-12-20T08:13:23;100196.78;;;6.15;100.00
46394;BME280;32099;53.588;10.176;2023-12-20T08:15:49;100197.47;;;6.17;100.00
46394;BME280;32099;53.588;10.176;2023-12-20T08:18:15;100122.81;;;5.82;100.00
46394;BME280;32099;53.588;10.176;2023-12-20T08:20:43;100181.75;;;6.21;100.00
46394;BME280;32099;53.588;10.176;2023-12-20T08:23:09;100170.06;;;6.21;100.00
46394;BME280;32099;53.588;10.176;2023-12-20T08:25:35;100167.88;;;6.24;100.00
46394;BME280;32099;53.588;10.176;2023-12-20T08:28:00;100159.59;;;6.26;100.00
46394;BME280;32099;53.588;10.176;2023-12-20T08:30:27;100168.72;;;6.25;100.00
46394;BME280;32099;53.588;10.176;2023-12-20T08:32:52;100164.47;;;6.22;100.00
46394;BME280;32099;53.588;10.176;2023-12-20T08:35:18;100160.75;;;6.23;100.00
46394;BME280;32099;53.588;10.176;2023-12-20T08:37:46;100154.19;;;6.26;100.00
46394;BME280;32099;53.588;10.176;2023-12-20T08:40:12;100147.75;;;6.27;100.00
46394;BME280;32099;53.588;10.176;2023-12-20T08:42:38;100141.28;;;6.28;100.00
46394;BME280;32099;53.588;10.176;2023-12-20T08:45:04;100157.22;;;6.31;100.00
46394;BME280;32099;53.588;10.176;2023-12-20T08:47:30;100129.78;;;6.34;100.00
46394;BME280;32099;53.588;10.176;2023-12-20T08:49:58;100126.56;;;6.39;100.00
46394;BME280;32099;53.588;10.176;2023-12-20T08:52:24;100128.59;;;6.45;100.00
46394;BME280;32099;53.588;10.176;2023-12-20T08:54:52;100140.78;;;6.49;100.00
46394;BME280;32099;53.588;10.176;2023-12-20T08:57:19;100135.84;;;6.53;100.00
46394;BME280;32099;53.588;10.176;2023-12-20T08:59:45;100119.94;;;6.58;100.00
46394;BME280;32099;53.588;10.176;2023-12-20T09:02:10;100139.94;;;6.57;100.00
46394;BME280;32099;53.588;10.176;2023-12-20T09:04:36;100136.19;;;6.58;100.00
46394;BME280;32099;53.588;10.176;2023-12-20T09:07:02;100143.47;;;6.57;100.00
46394;BME280;32099;53.588;10.176;2023-12-20T09:09:27;100139.25;;;6.55;100.00
46394;BME280;32099;53.588;10.176;2023-12-20T09:11:56;100131.47;;;6.52;100.00
46394;BME280;32099;53.588;10.176;2023-12-20T09:14:21;100117.41;;;6.48;100.00
46394;BME280;32099;53.588;10.176;2023-12-20T09:16:47;100110.00;;;6.42;100.00
46394;BME280;32099;53.588;10.176;2023-12-20T09:19:13;100122.34;;;6.36;100.00
46394;BME280;32099;53.588;10.176;2023-12-20T09:21:38;100125.03;;;6.28;100.00
46394;BME280;32099;53.588;10.176;2023-12-20T09:24:04;100131.50;;;6.27;100.00
46394;BME280;32099;53.588;10.176;2023-12-20T09:26:30;100142.47;;;6.25;100.00
46394;BME280;32099;53.588;10.176;2023-12-20T09:28:59;100151.44;;;6.17;100.00
46394;BME280;32099;53.588;10.176;2023-12-20T09:31:24;100150.25;;;6.12;100.00
46394;BME280;32099;53.588;10.176;2023-12-20T09:33:50;100149.56;;;6.10;100.00
46394;BME280;32099;53.588;10.176;2023-12-20T09:36:16;100137.75;;;6.11;100.00
46394;BME280;32099;53.588;10.176;2023-12-20T09:38:41;100138.75;;;6.10;100.00
46394;BME280;32099;53.588;10.176;2023-12-20T09:41:07;100133.34;;;6.10;100.00
46394;BME280;32099;53.588;10.176;2023-12-20T09:43:33;100142.31;;;6.10;100.00
46394;BME280;32099;53.588;10.176;2023-12-20T09:46:06;100145.72;;;6.12;100.00
46394;BME280;32099;53.588;10.176;2023-12-20T09:48:32;100151.28;;;6.11;100.00
46394;BME280;32099;53.588;10.176;2023-12-20T09:50:58;100153.97;;;6.11;100.00
46394;BME280;32099;53.588;10.176;2023-12-20T09:53:24;100168.53;;;6.10;100.00
46394;BME280;32099;53.588;10.176;2023-12-20T09:55:50;100179.53;;;6.08;100.00
46394;BME280;32099;53.588;10.176;2023-12-20T09:58:17;100168.03;;;6.06;100.00
46394;BME280;32099;53.588;10.176;2023-12-20T10:00:43;100157.38;;;6.05;100.00
46394;BME280;32099;53.588;10.176;2023-12-20T10:03:11;100173.25;;;5.99;100.00
46394;BME280;32099;53.588;10.176;2023-12-20T10:05:40;100146.84;;;5.93;100.00
46394;BME280;32099;53.588;10.176;2023-12-20T10:08:08;100160.88;;;5.89;100.00
46394;BME280;32099;53.588;10.176;2023-12-20T10:10:34;100151.25;;;5.86;99.77
46394;BME280;32099;53.588;10.176;2023-12-20T10:13:03;100151.25;;;5.86;99.77
46394;BME280;32099;53.588;10.176;2023-12-20T10:15:30;100131.44;;;5.77;100.00
46394;BME280;32099;53.588;10.176;2023-12-20T10:17:56;100139.19;;;5.72;99.00
46394;BME280;32099;53.588;10.176;2023-12-20T10:20:25;100179.25;;;5.68;100.00
46394;BME280;32099;53.588;10.176;2023-12-20T10:22:51;100174.53;;;5.62;99.93
46394;BME280;32099;53.588;10.176;2023-12-20T10:25:17;100186.34;;;5.61;100.00
46394;BME280;32099;53.588;10.176;2023-12-20T10:27:42;100173.34;;;5.65;100.00
46394;BME280;32099;53.588;10.176;2023-12-20T10:30:09;100172.31;;;5.66;100.00
46394;BME280;32099;53.588;10.176;2023-12-20T10:32:35;100171.16;;;5.68;99.92
46394;BME280;32099;53.588;10.176;2023-12-20T10:35:01;100166.59;;;5.69;99.67
46394;BME280;32099;53.588;10.176;2023-12-20T10:37:30;100158.31;;;5.70;99.95
46394;BME280;32099;53.588;10.176;2023-12-20T10:39:55;100143.09;;;5.69;99.11
46394;BME280;32099;53.588;10.176;2023-12-20T10:42:24;100140.19;;;5.71;99.52
46394;BME280;32099;53.588;10.176;2023-12-20T10:44:52;100132.78;;;5.73;99.94
46394;BME280;32099;53.588;10.176;2023-12-20T10:47:18;100137.84;;;5.76;99.36
46394;BME280;32099;53.588;10.176;2023-12-20T10:49:45;100139.69;;;5.76;98.30
46394;BME280;32099;53.588;10.176;2023-12-20T10:52:11;100145.09;;;5.76;98.66
46394;BME280;32099;53.588;10.176;2023-12-20T10:54:40;100139.19;;;5.72;98.58
46394;BME280;32099;53.588;10.176;2023-12-20T10:57:06;100136.66;;;5.70;98.68
46394;BME280;32099;53.588;10.176;2023-12-20T10:59:33;100132.09;;;5.71;99.03
46394;BME280;32099;53.588;10.176;2023-12-20T11:02:01;100128.38;;;5.72;98.78
46394;BME280;32099;53.588;10.176;2023-12-20T11:04:31;100139.03;;;5.74;98.55
46394;BME280;32099;53.588;10.176;2023-12-20T11:07:04;100137.16;;;5.74;98.41
46394;BME280;32099;53.588;10.176;2023-12-20T11:09:43;100127.34;;;5.73;99.20
46394;BME280;32099;53.588;10.176;2023-12-20T11:12:15;100135.31;;;5.75;99.49
46394;BME280;32099;53.588;10.176;2023-12-20T11:14:45;100144.59;;;5.72;99.30
46394;BME280;32099;53.588;10.176;2023-12-20T11:17:13;100130.56;;;5.68;99.54
46394;BME280;32099;53.588;10.176;2023-12-20T11:19:43;100141.88;;;5.64;100.00
46394;BME280;32099;53.588;10.176;2023-12-20T11:22:32;100097.34;;;5.25;100.00
46394;BME280;32099;53.588;10.176;2023-12-20T11:25:02;100167.53;;;5.51;100.00
46394;BME280;32099;53.588;10.176;2023-12-20T11:27:30;100164.50;;;5.46;100.00
46394;BME280;32099;53.588;10.176;2023-12-20T11:29:56;100160.09;;;5.45;100.00
46394;BME280;32099;53.588;10.176;2023-12-20T11:32:29;100164.81;;;5.43;100.00
46394;BME280;32099;53.588;10.176;2023-12-20T11:34:55;100166.00;;;5.40;100.00
46394;BME280;32099;53.588;10.176;2023-12-20T11:37:21;100166.97;;;5.31;100.00
46394;BME280;32099;53.588;10.176;2023-12-20T11:39:54;100166.09;;;5.22;100.00
46394;BME280;32099;53.588;10.176;2023-12-20T11:42:23;100170.13;;;5.18;100.00
46394;BME280;32099;53.588;10.176;2023-12-20T11:44:49;100162.00;;;5.10;100.00
46394;BME280;32099;53.588;10.176;2023-12-20T11:47:15;100152.50;;;5.06;100.00
46394;BME280;32099;53.588;10.176;2023-12-20T11:49:41;100096.13;;;4.76;100.00
46394;BME280;32099;53.588;10.176;2023-12-20T11:52:07;100144.91;;;5.09;100.00
46394;BME280;32099;53.588;10.176;2023-12-20T11:54:33;100143.41;;;5.15;100.00
46394;BME280;32099;53.588;10.176;2023-12-20T11:56:58;100143.09;;;5.18;100.00
46394;BME280;32099;53.588;10.176;2023-12-20T11:59:27;100137.72;;;5.27;100.00
46394;BME280;32099;53.588;10.176;2023-12-20T12:01:53;100142.63;;;5.31;100.00
46394;BME280;32099;53.588;10.176;2023-12-20T12:04:18;100143.31;;;5.33;100.00
46394;BME280;32099;53.588;10.176;2023-12-20T12:06:44;100142.81;;;5.38;100.00
46394;BME280;32099;53.588;10.176;2023-12-20T12:09:11;100153.31;;;5.41;100.00
46394;BME280;32099;53.588;10.176;2023-12-20T12:11:36;100150.13;;;5.46;100.00
46394;BME280;32099;53.588;10.176;2023-12-20T12:14:02;100151.63;;;5.48;100.00
46394;BME280;32099;53.588;10.176;2023-12-20T12:16:31;100141.38;;;5.52;100.00
46394;BME280;32099;53.588;10.176;2023-12-20T12:18:57;100123.94;;;5.54;100.00
46394;BME280;32099;53.588;10.176;2023-12-20T12:21:23;100122.09;;;5.55;100.00
46394;BME280;32099;53.588;10.176;2023-12-20T12:23:49;100115.66;;;5.56;100.00
46394;BME280;32099;53.588;10.176;2023-12-20T12:26:15;100123.63;;;5.58;100.00
46394;BME280;32099;53.588;10.176;2023-12-20T12:28:40;100120.75;;;5.59;100.00
46394;BME280;32099;53.588;10.176;2023-12-20T12:31:06;100103.84;;;5.65;100.00
46394;BME280;32099;53.588;10.176;2023-12-20T12:33:35;100110.28;;;5.72;100.00
46394;BME280;32099;53.588;10.176;2023-12-20T12:36:00;100110.66;;;5.86;100.00